Time;durP1;ratioP1;P1;durP2;ratioP2;P2;SDS_P1;SDS_P2;PMS_P1;PMS_P2;Temp;Humidity;BMP_temperature;BMP_pressure;BME280_temperature;BME280_humidity;BME280_pressure;Samples;Min_cycle;Max_cycle;Signal;HPM_P1;HPM_P2
2024/01/13 00:01:43;;;;;;;21.50;11.20;;;3.90;99.90;;;;;;5092621;28;20252;-73
2024/01/13 00:04:10;;;;;;;30.87;14.03;;;3.90;99.90;;;;;;5092170;28;20466;-74
2024/01/13 00:06:36;;;;;;;31.70;12.53;;;3.90;99.90;;;;;;5092349;28;20194;-73
2024/01/13 00:09:01;;;;;;;25.53;12.80;;;3.90;99.90;;;;;;5092270;28;20408;-73
2024/01/13 00:11:27;;;;;;;28.73;13.40;;;3.90;99.90;;;;;;5092422;28;20170;-73
2024/01/13 00:13:52;;;;;;;32.87;13.97;;;3.90;99.90;;;;;;5092195;28;20177;-74
2024/01/13 00:16:18;;;;;;;26.23;13.90;;;3.90;99.90;;;;;;5092240;28;20235;-75
2024/01/13 00:18:44;;;;;;;27.43;15.47;;;3.90;99.90;;;;;;5074128;28;20230;-74
2024/01/13 00:21:09;;;;;;;32.93;14.77;;;3.90;99.90;;;;;;5092114;28;20800;-73
2024/01/13 00:23:35;;;;;;;35.10;14.07;;;3.90;99.90;;;;;;5091872;28;20264;-73
2024/01/13 00:26:01;;;;;;;23.00;11.93;;;3.90;99.90;;;;;;5092139;28;20177;-73
2024/01/13 00:28:27;;;;;;;21.23;11.67;;;3.90;99.90;;;;;;5092107;28;20451;-73
2024/01/13 00:30:52;;;;;;;25.33;12.73;;;3.90;99.90;;;;;;5092095;28;20680;-73
2024/01/13 00:33:18;;;;;;;26.57;12.70;;;3.90;99.90;;;;;;5092056;28;20247;-73
2024/01/13 00:35:43;;;;;;;24.90;12.90;;;3.90;99.90;;;;;;5091936;28;20291;-74
2024/01/13 00:38:09;;;;;;;27.07;13.17;;;3.80;99.90;;;;;;5092063;28;20188;-75
2024/01/13 00:40:34;;;;;;;28.53;13.10;;;3.80;99.90;;;;;;5092096;28;20173;-75
2024/01/13 00:43:00;;;;;;;31.77;13.50;;;3.80;99.90;;;;;;5091884;28;20181;-74
2024/01/13 00:45:25;;;;;;;28.80;14.90;;;3.80;99.90;;;;;;5091631;28;20581;-75
2024/01/13 00:47:51;;;;;;;34.77;14.77;;;3.80;99.90;;;;;;5091885;28;20220;-71
2024/01/13 00:50:17;;;;;;;24.30;12.93;;;3.80;99.90;;;;;;5091927;28;20204;-72
2024/01/13 00:52:42;;;;;;;33.37;15.63;;;3.90;99.90;;;;;;5087607;28;20676;-71
2024/01/13 00:55:08;;;;;;;30.03;14.87;;;3.90;99.90;;;;;;5088442;28;20186;-73
2024/01/13 00:57:33;;;;;;;24.13;14.33;;;3.90;99.90;;;;;;5091684;28;20177;-72
2024/01/13 00:59:59;;;;;;;25.13;13.07;;;3.90;99.90;;;;;;5091835;28;20636;-73
2024/01/13 01:02:25;;;;;;;27.47;14.30;;;3.90;99.90;;;;;;5073575;28;20193;-73
2024/01/13 01:04:50;;;;;;;39.40;13.70;;;3.90;99.90;;;;;;5091531;28;20261;-74
2024/01/13 01:07:16;;;;;;;30.40;16.00;;;3.90;99.90;;;;;;5091705;28;20606;-74
2024/01/13 01:09:41;;;;;;;29.30;14.40;;;3.90;99.90;;;;;;5091783;28;20188;-74
2024/01/13 01:12:07;;;;;;;25.80;14.00;;;3.80;99.90;;;;;;5094082;28;20659;-74
2024/01/13 01:14:32;;;;;;;31.70;16.13;;;3.80;99.90;;;;;;5095524;28;20186;-74
2024/01/13 01:16:58;;;;;;;26.50;13.77;;;3.80;99.90;;;;;;5095651;28;20166;-74
2024/01/13 01:19:23;;;;;;;32.73;14.40;;;3.80;99.90;;;;;;5095660;28;20174;-73
2024/01/13 01:21:49;;;;;;;24.07;13.00;;;3.90;99.90;;;;;;5077410;28;20226;-73
2024/01/13 01:24:14;;;;;;;28.90;12.33;;;3.90;99.90;;;;;;5077073;28;20217;-73
2024/01/13 01:26:40;;;;;;;25.77;12.00;;;3.90;99.90;;;;;;5096147;28;20196;-74
2024/01/13 01:29:06;;;;;;;23.50;13.80;;;3.90;99.90;;;;;;5096348;28;20600;-74
2024/01/13 01:31:32;;;;;;;28.37;15.07;;;3.90;99.90;;;;;;5096048;28;20176;-74
2024/01/13 01:33:57;;;;;;;26.87;11.57;;;3.90;99.90;;;;;;5096100;28;20427;-74
2024/01/13 01:36:23;;;;;;;24.07;13.17;;;3.90;99.90;;;;;;5096267;28;20216;-74
2024/01/13 01:38:49;;;;;;;36.00;13.63;;;3.90;99.90;;;;;;5095430;28;20514;-74
2024/01/13 01:41:14;;;;;;;22.07;12.40;;;3.90;99.90;;;;;;5095261;28;20172;-74
2024/01/13 01:43:40;;;;;;;24.40;13.70;;;3.90;99.90;;;;;;5094931;28;20193;-74
2024/01/13 01:46:06;;;;;;;27.40;14.00;;;4.00;99.90;;;;;;5095130;28;20696;-73
2024/01/13 01:48:37;;;;;;;33.47;14.97;;;3.90;99.90;;;;;;5077468;28;20799;-74
2024/01/13 01:51:04;;;;;;;32.33;14.20;;;3.90;99.90;;;;;;5095744;28;20400;-74
2024/01/13 01:53:30;;;;;;;20.80;11.37;;;3.90;99.90;;;;;;5096105;28;20458;-74
2024/01/13 01:55:58;;;;;;;32.83;14.50;;;3.80;99.90;;;;;;5077977;28;20911;-74
2024/01/13 01:58:24;;;;;;;28.50;11.33;;;3.70;99.90;;;;;;5096818;28;20449;-74
2024/01/13 02:00:49;;;;;;;29.97;12.57;;;3.70;99.90;;;;;;5096514;28;20441;-74
2024/01/13 02:03:15;;;;;;;26.53;12.17;;;3.80;99.90;;;;;;5095961;28;20169;-74
2024/01/13 02:05:41;;;;;;;28.57;12.80;;;3.90;99.90;;;;;;5095999;28;20629;-74
2024/01/13 02:08:07;;;;;;;20.30;11.07;;;3.90;99.90;;;;;;5096503;28;20193;-74
2024/01/13 02:10:33;;;;;;;17.73;11.03;;;3.80;99.90;;;;;;5078486;28;20403;-74
2024/01/13 02:12:59;;;;;;;24.67;11.70;;;3.90;99.90;;;;;;5077266;28;20174;-74
2024/01/13 02:15:24;;;;;;;17.80;10.53;;;4.00;99.90;;;;;;5077145;28;20395;-74
2024/01/13 02:17:50;;;;;;;28.13;10.80;;;4.00;99.90;;;;;;5077246;28;20444;-74
2024/01/13 02:20:15;;;;;;;27.37;12.23;;;4.00;99.90;;;;;;5094929;28;20177;-74
2024/01/13 02:22:41;;;;;;;24.83;12.07;;;4.00;99.90;;;;;;5094127;28;20170;-74
2024/01/13 02:25:07;;;;;;;22.90;10.97;;;4.10;99.90;;;;;;5076180;28;20626;-72
2024/01/13 02:27:33;;;;;;;23.97;11.10;;;4.10;99.90;;;;;;5094139;28;20652;-73
2024/01/13 02:29:59;;;;;;;20.90;10.13;;;4.10;99.90;;;;;;5076382;28;20411;-72
2024/01/13 02:32:24;;;;;;;17.80;10.73;;;4.10;99.90;;;;;;5094316;28;20601;-73
2024/01/13 02:34:50;;;;;;;21.13;11.17;;;4.10;99.90;;;;;;5094072;28;20197;-74
2024/01/13 02:37:15;;;;;;;23.07;11.10;;;3.80;99.90;;;;;;5094686;28;20169;-74
2024/01/13 02:39:41;;;;;;;29.57;16.13;;;3.80;99.90;;;;;;5094417;28;20177;-74
2024/01/13 02:42:06;;;;;;;26.90;12.60;;;3.80;99.90;;;;;;5076012;28;20182;-74
2024/01/13 02:44:32;;;;;;;26.17;12.73;;;3.70;99.90;;;;;;5075963;28;20810;-74
2024/01/13 02:46:58;;;;;;;24.30;11.80;;;3.60;99.90;;;;;;5094706;28;20209;-73
2024/01/13 02:49:23;;;;;;;23.57;12.67;;;3.60;99.90;;;;;;5093939;28;20180;-73
2024/01/13 02:51:49;;;;;;;28.40;13.37;;;3.70;99.90;;;;;;5093829;28;20185;-73
2024/01/13 02:54:14;;;;;;;26.43;12.97;;;3.70;99.90;;;;;;5093651;28;20204;-74
2024/01/13 02:56:40;;;;;;;24.40;12.30;;;3.70;99.90;;;;;;5093641;28;20193;-73
2024/01/13 02:59:06;;;;;;;26.57;11.57;;;3.70;99.90;;;;;;5093822;28;20339;-72
2024/01/13 03:01:33;;;;;;;26.70;13.47;;;3.60;99.90;;;;;;5093561;28;20170;-73
2024/01/13 03:03:58;;;;;;;22.00;11.00;;;3.70;99.90;;;;;;5093384;28;20438;-72
2024/01/13 03:06:25;;;;;;;31.37;12.10;;;3.70;99.90;;;;;;5093532;28;20407;-72
2024/01/13 03:08:51;;;;;;;26.20;12.60;;;3.70;99.90;;;;;;5093670;28;20538;-73
2024/01/13 03:11:17;;;;;;;26.20;12.67;;;3.70;99.90;;;;;;5093411;28;20408;-74
2024/01/13 03:13:43;;;;;;;24.07;12.83;;;3.60;99.90;;;;;;5093217;28;20462;-73
2024/01/13 03:16:09;;;;;;;23.60;12.10;;;3.60;99.90;;;;;;5075046;28;20173;-73
2024/01/13 03:18:35;;;;;;;22.70;11.23;;;3.60;99.90;;;;;;5094378;28;20415;-74
2024/01/13 03:21:02;;;;;;;32.77;12.10;;;3.50;99.90;;;;;;5094205;28;20256;-74
2024/01/13 03:23:28;;;;;;;23.57;11.90;;;3.50;99.90;;;;;;5093768;28;20186;-74
2024/01/13 03:25:54;;;;;;;21.13;10.73;;;3.50;99.90;;;;;;5092306;28;20422;-74
2024/01/13 03:28:19;;;;;;;26.03;12.33;;;3.50;99.90;;;;;;5092367;28;20459;-74
2024/01/13 03:30:45;;;;;;;19.30;11.97;;;3.50;99.90;;;;;;5093831;28;20176;-74
2024/01/13 03:33:10;;;;;;;22.97;11.67;;;3.60;99.90;;;;;;5093664;28;20233;-74
2024/01/13 03:35:36;;;;;;;20.43;9.87;;;3.70;99.90;;;;;;5092778;28;20176;-74
2024/01/13 03:38:01;;;;;;;24.40;11.10;;;3.70;99.90;;;;;;5093086;28;20535;-73
2024/01/13 03:40:27;;;;;;;17.90;9.70;;;3.80;99.90;;;;;;5074841;28;20231;-74
2024/01/13 03:42:52;;;;;;;20.67;10.03;;;3.90;99.90;;;;;;5092980;28;20177;-74
2024/01/13 03:45:18;;;;;;;26.10;12.13;;;3.90;99.90;;;;;;5092467;28;20181;-74
2024/01/13 03:47:43;;;;;;;19.80;10.03;;;3.90;99.90;;;;;;5092711;28;20721;-74
2024/01/13 03:50:09;;;;;;;20.10;10.40;;;3.80;99.90;;;;;;5093020;28;20162;-74
2024/01/13 03:52:35;;;;;;;16.90;9.30;;;3.80;99.90;;;;;;5092683;28;20181;-74
2024/01/13 03:55:00;;;;;;;25.70;11.47;;;3.80;99.90;;;;;;5092366;28;20215;-74
2024/01/13 03:57:26;;;;;;;30.07;13.30;;;3.70;99.90;;;;;;5092557;28;20169;-73
2024/01/13 03:59:51;;;;;;;22.00;10.40;;;3.50;99.90;;;;;;5092626;28;20556;-74
2024/01/13 04:02:17;;;;;;;22.17;11.50;;;3.50;99.90;;;;;;5092498;28;20173;-73
2024/01/13 04:04:42;;;;;;;24.60;11.10;;;3.50;99.90;;;;;;5090957;28;20196;-73
2024/01/13 04:07:10;;;;;;;29.43;11.63;;;3.60;99.90;;;;;;5092492;28;20914;-74
2024/01/13 04:09:35;;;;;;;21.60;10.60;;;3.50;99.90;;;;;;5092558;28;20248;-73
2024/01/13 04:12:01;;;;;;;21.23;11.87;;;3.50;99.90;;;;;;5092363;28;20541;-73
2024/01/13 04:14:26;;;;;;;25.13;11.43;;;3.50;99.90;;;;;;5092136;28;20670;-73
2024/01/13 04:16:52;;;;;;;17.70;11.20;;;3.50;99.90;;;;;;5092287;28;20253;-73
2024/01/13 04:19:17;;;;;;;18.77;10.63;;;3.40;99.90;;;;;;5074134;28;20173;-73
2024/01/13 04:21:43;;;;;;;28.77;12.10;;;3.50;99.90;;;;;;5091954;28;20180;-73
2024/01/13 04:24:08;;;;;;;19.37;11.70;;;3.40;99.90;;;;;;5092011;28;20190;-74
2024/01/13 04:26:35;;;;;;;16.90;10.23;;;3.50;99.90;;;;;;5073913;28;20528;-73
2024/01/13 04:29:00;;;;;;;20.37;10.33;;;3.50;99.90;;;;;;5092210;28;20177;-74
2024/01/13 04:31:26;;;;;;;16.80;10.83;;;3.40;99.90;;;;;;5092071;28;20493;-73
2024/01/13 04:33:51;;;;;;;19.57;9.23;;;3.30;99.90;;;;;;5073739;28;20189;-72
2024/01/13 04:36:18;;;;;;;23.17;11.10;;;3.30;99.90;;;;;;5091941;28;20180;-73
2024/01/13 04:38:43;;;;;;;18.63;10.13;;;3.30;99.90;;;;;;5091985;28;20173;-72
2024/01/13 04:41:09;;;;;;;20.37;9.50;;;3.30;99.90;;;;;;5091803;28;20420;-72
2024/01/13 04:43:35;;;;;;;23.13;9.97;;;3.30;99.90;;;;;;5073581;28;20189;-73
2024/01/13 04:46:01;;;;;;;20.47;10.47;;;3.20;99.90;;;;;;5091791;28;20166;-72
2024/01/13 04:48:26;;;;;;;26.33;12.27;;;3.20;99.90;;;;;;5092059;28;20964;-74
2024/01/13 04:50:52;;;;;;;27.90;13.53;;;3.20;99.90;;;;;;5074401;28;20735;-74
2024/01/13 04:53:17;;;;;;;28.70;12.17;;;3.30;99.90;;;;;;5091751;28;20242;-73
2024/01/13 04:55:43;;;;;;;22.47;12.47;;;3.20;99.90;;;;;;5091664;28;20534;-74
2024/01/13 04:58:09;;;;;;;20.10;11.37;;;3.20;99.90;;;;;;5091867;28;20180;-73
2024/01/13 05:00:35;;;;;;;21.50;10.87;;;3.20;99.90;;;;;;5091861;28;20166;-73
2024/01/13 05:03:01;;;;;;;19.63;12.70;;;3.20;99.90;;;;;;5091677;28;20774;-73
2024/01/13 05:05:26;;;;;;;21.50;12.10;;;3.30;99.90;;;;;;5091577;28;20172;-72
2024/01/13 05:07:52;;;;;;;22.23;12.17;;;3.30;99.90;;;;;;5091491;28;20197;-72
2024/01/13 05:10:17;;;;;;;19.10;11.40;;;3.30;99.90;;;;;;5091588;28;20173;-72
2024/01/13 05:12:43;;;;;;;22.53;10.63;;;3.30;99.90;;;;;;5091768;28;20587;-72
2024/01/13 05:15:09;;;;;;;35.60;11.83;;;3.20;99.90;;;;;;5091573;28;20185;-72
2024/01/13 05:17:34;;;;;;;30.20;14.07;;;3.30;99.90;;;;;;5091747;28;20170;-72
2024/01/13 05:20:00;;;;;;;30.80;14.33;;;3.40;99.90;;;;;;5073551;28;20215;-72
2024/01/13 05:22:25;;;;;;;32.13;14.27;;;3.40;99.90;;;;;;5091357;28;20249;-73
2024/01/13 05:24:51;;;;;;;24.00;12.17;;;3.30;99.90;;;;;;5091057;28;20747;-73
2024/01/13 05:27:16;;;;;;;31.80;13.37;;;3.30;99.90;;;;;;5091413;28;20665;-73
2024/01/13 05:29:42;;;;;;;35.60;13.03;;;3.30;99.90;;;;;;5073413;28;20196;-73
2024/01/13 05:32:08;;;;;;;30.33;13.57;;;3.30;99.90;;;;;;5091444;28;20166;-73
2024/01/13 05:34:34;;;;;;;27.43;11.77;;;3.30;99.90;;;;;;5091245;28;20186;-73
2024/01/13 05:36:59;;;;;;;29.90;13.77;;;3.30;99.90;;;;;;5091448;28;20170;-72
2024/01/13 05:39:25;;;;;;;24.90;13.17;;;3.20;99.90;;;;;;5091512;28;20431;-73
2024/01/13 05:41:50;;;;;;;28.97;13.00;;;3.20;99.90;;;;;;5073428;28;20169;-73
2024/01/13 05:44:16;;;;;;;27.77;12.57;;;3.10;99.90;;;;;;5091100;28;20841;-73
2024/01/13 05:46:41;;;;;;;29.90;12.43;;;3.10;99.90;;;;;;5073199;28;20200;-73
2024/01/13 05:49:08;;;;;;;22.17;12.00;;;3.10;99.90;;;;;;5091462;28;20818;-73
2024/01/13 05:51:34;;;;;;;22.23;12.47;;;3.10;99.90;;;;;;5091264;28;20177;-73
2024/01/13 05:53:59;;;;;;;18.97;11.90;;;3.00;99.90;;;;;;5090868;28;20457;-73
2024/01/13 05:56:25;;;;;;;22.30;12.23;;;3.00;99.90;;;;;;5091299;28;20952;-73
2024/01/13 05:58:52;;;;;;;27.20;11.63;;;3.00;99.90;;;;;;5094466;28;20177;-73
2024/01/13 06:01:17;;;;;;;27.00;11.20;;;3.00;99.90;;;;;;5094923;28;20547;-72
2024/01/13 06:03:43;;;;;;;20.23;12.73;;;2.90;99.90;;;;;;5094509;28;20427;-72
2024/01/13 06:06:08;;;;;;;20.20;11.00;;;2.90;99.90;;;;;;5094839;28;20165;-72
2024/01/13 06:08:34;;;;;;;25.97;12.93;;;3.00;99.90;;;;;;5094605;28;20258;-72
2024/01/13 06:11:03;;;;;;;21.40;11.30;;;3.10;99.90;;;;;;5094752;28;20173;-72
2024/01/13 06:13:28;;;;;;;15.80;10.43;;;3.10;99.90;;;;;;5094486;28;20181;-72
2024/01/13 06:15:54;;;;;;;20.47;11.20;;;3.00;99.90;;;;;;5094363;28;20407;-72
2024/01/13 06:18:20;;;;;;;20.07;10.90;;;3.00;99.90;;;;;;5094439;28;20170;-71
2024/01/13 06:20:46;;;;;;;17.60;12.20;;;3.10;99.90;;;;;;5094498;28;20898;-72
2024/01/13 06:23:11;;;;;;;20.57;11.60;;;3.10;99.90;;;;;;5094275;28;20169;-72
2024/01/13 06:25:37;;;;;;;25.13;13.90;;;3.10;99.90;;;;;;5094127;28;20921;-72
2024/01/13 06:28:03;;;;;;;24.50;13.00;;;3.10;99.90;;;;;;5094292;28;20200;-72
2024/01/13 06:30:28;;;;;;;24.93;10.73;;;3.20;99.90;;;;;;5094394;28;20632;-74
2024/01/13 06:32:54;;;;;;;18.10;10.33;;;3.20;99.90;;;;;;5094232;28;20408;-73
2024/01/13 06:35:19;;;;;;;26.03;12.37;;;3.20;99.90;;;;;;5093904;28;20190;-72
2024/01/13 06:37:45;;;;;;;19.43;11.20;;;3.30;99.90;;;;;;5094147;28;20182;-73
2024/01/13 06:40:11;;;;;;;18.60;11.77;;;3.40;99.90;;;;;;5094122;28;20231;-72
2024/01/13 06:42:36;;;;;;;15.20;9.77;;;3.50;99.90;;;;;;5093967;28;20169;-72
2024/01/13 06:45:02;;;;;;;19.73;11.37;;;3.60;99.90;;;;;;5093695;28;20427;-73
2024/01/13 06:47:27;;;;;;;19.10;10.90;;;3.70;99.90;;;;;;5093861;28;20208;-73
2024/01/13 06:49:53;;;;;;;18.10;12.50;;;3.70;99.90;;;;;;5094070;28;20181;-73
2024/01/13 06:52:19;;;;;;;15.30;9.90;;;3.70;99.90;;;;;;5093811;28;20189;-73
2024/01/13 06:54:45;;;;;;;13.60;9.37;;;3.80;99.90;;;;;;5093604;28;20423;-72
2024/01/13 06:57:10;;;;;;;21.47;10.33;;;3.90;99.90;;;;;;5075518;28;20176;-73
2024/01/13 06:59:36;;;;;;;17.60;11.00;;;3.90;99.90;;;;;;5093858;28;20169;-73
2024/01/13 07:02:02;;;;;;;17.33;11.60;;;4.00;99.90;;;;;;5093897;28;20173;-74
2024/01/13 07:04:28;;;;;;;20.67;12.47;;;4.00;99.90;;;;;;5093593;28;20477;-73
2024/01/13 07:06:54;;;;;;;17.43;11.03;;;4.10;99.90;;;;;;5093493;28;20624;-72
2024/01/13 07:09:20;;;;;;;20.10;11.53;;;4.10;99.90;;;;;;5092446;28;20486;-72
2024/01/13 07:11:49;;;;;;;22.63;12.70;;;4.00;99.90;;;;;;5093426;28;20260;-73
2024/01/13 07:14:14;;;;;;;16.70;11.20;;;4.00;99.90;;;;;;5093323;28;20551;-72
2024/01/13 07:16:40;;;;;;;20.73;11.63;;;4.00;99.90;;;;;;5093397;28;20395;-72
2024/01/13 07:19:07;;;;;;;22.93;12.77;;;3.90;99.90;;;;;;5093395;28;20154;-74
2024/01/13 07:21:33;;;;;;;17.80;11.10;;;3.90;99.90;;;;;;5093260;28;20158;-73
2024/01/13 07:23:58;;;;;;;19.77;12.00;;;3.80;99.90;;;;;;5092971;28;20787;-73
2024/01/13 07:26:24;;;;;;;20.43;12.43;;;3.80;99.90;;;;;;5093168;28;20158;-73
2024/01/13 07:28:49;;;;;;;22.07;12.30;;;3.80;99.90;;;;;;5075212;28;20659;-73
2024/01/13 07:31:15;;;;;;;21.70;12.63;;;3.70;99.90;;;;;;5093236;28;20170;-73
2024/01/13 07:33:41;;;;;;;22.97;11.73;;;3.50;99.90;;;;;;5074708;28;20294;-73
2024/01/13 07:36:07;;;;;;;20.33;11.70;;;3.40;99.90;;;;;;5092903;28;20165;-73
2024/01/13 07:38:32;;;;;;;20.50;13.30;;;3.30;99.90;;;;;;5092805;28;20769;-73
2024/01/13 07:40:58;;;;;;;23.97;12.90;;;3.20;99.90;;;;;;5093015;28;20223;-73
2024/01/13 07:43:23;;;;;;;22.40;11.40;;;3.20;99.90;;;;;;5092938;28;20181;-73
2024/01/13 07:45:49;;;;;;;21.27;13.17;;;3.10;99.90;;;;;;5092470;28;20238;-73
2024/01/13 07:48:14;;;;;;;24.50;12.60;;;3.10;99.90;;;;;;5092930;28;20193;-72
2024/01/13 07:50:40;;;;;;;22.50;12.57;;;3.10;99.90;;;;;;5092776;28;20169;-72
2024/01/13 07:53:05;;;;;;;23.43;14.10;;;3.00;99.90;;;;;;5092924;28;20177;-72
2024/01/13 07:55:31;;;;;;;22.13;13.20;;;3.00;99.90;;;;;;5092505;28;20244;-72
2024/01/13 07:57:56;;;;;;;28.70;13.60;;;3.00;99.90;;;;;;5092728;28;20176;-72
2024/01/13 08:00:23;;;;;;;33.47;14.57;;;3.00;99.90;;;;;;5092715;28;20652;-72
2024/01/13 08:02:49;;;;;;;16.60;11.70;;;3.00;99.90;;;;;;5092415;28;20166;-73
2024/01/13 08:05:15;;;;;;;23.03;12.20;;;3.00;99.90;;;;;;5092232;28;20420;-72
2024/01/13 08:07:40;;;;;;;26.37;13.97;;;3.00;99.90;;;;;;5092475;28;20470;-73
2024/01/13 08:10:06;;;;;;;23.73;13.40;;;3.00;99.90;;;;;;5074396;28;20166;-73
2024/01/13 08:12:32;;;;;;;19.00;12.90;;;3.00;99.90;;;;;;5092389;28;20162;-73
2024/01/13 08:14:57;;;;;;;18.37;12.30;;;3.00;99.90;;;;;;5092139;28;20423;-73
2024/01/13 08:17:23;;;;;;;25.50;13.23;;;3.00;99.90;;;;;;5074176;28;20176;-73
2024/01/13 08:19:48;;;;;;;18.83;12.23;;;3.00;99.90;;;;;;5074407;28;20177;-73
2024/01/13 08:22:14;;;;;;;22.33;12.57;;;3.00;99.90;;;;;;5093023;28;20253;-73
2024/01/13 08:24:39;;;;;;;18.70;10.70;;;3.10;99.90;;;;;;5093004;28;20189;-73
2024/01/13 08:27:05;;;;;;;16.27;10.17;;;3.10;99.90;;;;;;5092840;28;20193;-73
2024/01/13 08:29:30;;;;;;;22.53;11.60;;;3.10;99.90;;;;;;5092857;28;20210;-73
2024/01/13 08:31:56;;;;;;;18.90;10.93;;;3.20;99.90;;;;;;5092012;28;20173;-73
2024/01/13 08:34:22;;;;;;;12.47;9.07;;;3.20;99.90;;;;;;5092210;28;20192;-73
2024/01/13 08:36:47;;;;;;;13.90;9.67;;;3.20;99.90;;;;;;5092574;28;20178;-73
2024/01/13 08:39:13;;;;;;;18.43;11.00;;;3.20;99.90;;;;;;5092634;28;20176;-73
2024/01/13 08:41:38;;;;;;;18.43;10.30;;;3.20;99.90;;;;;;5092438;28;20706;-73
2024/01/13 08:44:04;;;;;;;14.70;10.80;;;3.30;99.90;;;;;;5092041;28;20193;-73
2024/01/13 08:46:30;;;;;;;17.17;10.90;;;3.30;99.90;;;;;;5091858;28;20174;-73
2024/01/13 08:48:56;;;;;;;15.47;10.57;;;3.40;99.90;;;;;;5091900;28;20406;-72
2024/01/13 08:51:22;;;;;;;18.10;11.77;;;3.40;99.90;;;;;;5091827;28;20256;-68
2024/01/13 08:53:47;;;;;;;13.13;9.20;;;3.50;99.90;;;;;;5091182;28;20858;-68
2024/01/13 08:56:14;;;;;;;19.17;10.27;;;3.50;99.90;;;;;;5091802;28;20248;-68
2024/01/13 08:58:40;;;;;;;15.40;10.97;;;3.50;99.90;;;;;;5091731;28;20161;-68
2024/01/13 09:01:05;;;;;;;14.83;10.40;;;3.60;99.90;;;;;;5091779;28;20408;-69
2024/01/13 09:03:31;;;;;;;12.53;9.40;;;3.70;99.90;;;;;;5091659;28;20196;-68
2024/01/13 09:05:57;;;;;;;15.20;10.07;;;3.70;99.90;;;;;;5091533;28;20750;-69
2024/01/13 09:08:22;;;;;;;20.67;9.47;;;3.70;99.90;;;;;;5091754;28;20197;-69
2024/01/13 09:10:48;;;;;;;19.93;11.20;;;3.70;99.90;;;;;;5091768;28;20399;-69
2024/01/13 09:13:13;;;;;;;13.20;9.10;;;3.70;99.90;;;;;;5091640;28;20252;-69
2024/01/13 09:15:39;;;;;;;11.07;8.30;;;3.80;99.90;;;;;;5091434;28;20165;-69
2024/01/13 09:18:06;;;;;;;15.53;9.80;;;3.80;99.90;;;;;;5091671;28;20176;-69
2024/01/13 09:20:32;;;;;;;12.40;8.57;;;3.90;99.90;;;;;;5091638;28;20529;-69
2024/01/13 09:22:58;;;;;;;14.00;8.90;;;3.90;99.90;;;;;;5091438;28;20411;-69
2024/01/13 09:25:23;;;;;;;14.60;8.23;;;3.90;99.90;;;;;;5073049;28;20215;-69
2024/01/13 09:27:49;;;;;;;12.57;9.20;;;4.00;99.90;;;;;;5091499;28;20204;-69
2024/01/13 09:30:15;;;;;;;11.80;7.03;;;4.10;99.90;;;;;;5091585;28;20200;-69
2024/01/13 09:32:42;;;;;;;13.80;8.40;;;4.10;99.90;;;;;;5093063;28;20199;-69
2024/01/13 09:35:08;;;;;;;10.33;6.97;;;4.10;99.90;;;;;;5095051;28;20419;-68
2024/01/13 09:37:34;;;;;;;11.63;6.83;;;4.00;99.90;;;;;;5095410;28;20466;-68
2024/01/13 09:39:59;;;;;;;15.23;8.33;;;4.10;99.90;;;;;;5095207;28;20407;-68
2024/01/13 09:42:38;;;;;;;12.13;7.43;;;4.10;99.90;;;;;;5095211;28;20411;-68
2024/01/13 09:45:05;;;;;;;16.10;8.27;;;4.10;99.90;;;;;;5094986;28;20221;-68
2024/01/13 09:47:31;;;;;;;13.53;7.20;;;4.00;99.90;;;;;;5094613;28;20564;-68
2024/01/13 09:49:57;;;;;;;12.17;7.27;;;4.00;99.90;;;;;;5095015;28;20412;-68
2024/01/13 09:52:24;;;;;;;9.60;6.83;;;4.10;99.90;;;;;;5094844;28;20518;-68
2024/01/13 09:54:56;;;;;;;13.23;7.60;;;4.10;99.90;;;;;;5094756;28;20251;-68
2024/01/13 09:57:21;;;;;;;8.20;5.83;;;4.30;99.90;;;;;;5095053;28;20905;-68
2024/01/13 09:59:49;;;;;;;10.47;6.27;;;4.40;99.90;;;;;;5094982;28;20431;-68
2024/01/13 10:02:14;;;;;;;15.20;8.00;;;4.40;99.90;;;;;;5094814;28;20410;-68
2024/01/13 10:04:40;;;;;;;20.17;8.10;;;4.40;99.90;;;;;;5094542;28;20840;-68
2024/01/13 10:07:08;;;;;;;11.53;6.47;;;4.30;99.90;;;;;;5094730;28;20799;-68
2024/01/13 10:09:33;;;;;;;8.57;6.40;;;4.40;99.90;;;;;;5094840;28;20157;-68
2024/01/13 10:11:59;;;;;;;9.23;6.10;;;4.50;99.90;;;;;;5094678;28;20403;-68
2024/01/13 10:14:25;;;;;;;23.23;12.57;;;4.70;99.90;;;;;;5094419;28;20189;-68
2024/01/13 10:16:50;;;;;;;13.40;5.90;;;4.90;99.90;;;;;;5094630;28;20414;-68
2024/01/13 10:19:16;;;;;;;9.07;6.27;;;5.00;99.90;;;;;;5094548;28;20810;-69
2024/01/13 10:21:42;;;;;;;15.60;7.13;;;5.00;99.90;;;;;;5094545;28;20220;-69
2024/01/13 10:24:07;;;;;;;9.73;5.50;;;5.10;99.90;;;;;;5093928;28;20185;-69
2024/01/13 10:26:33;;;;;;;17.10;6.50;;;5.20;99.90;;;;;;5094341;28;20744;-68
2024/01/13 10:28:59;;;;;;;7.57;5.00;;;5.20;99.90;;;;;;5094543;28;20173;-68
2024/01/13 10:31:25;;;;;;;7.80;5.27;;;5.20;99.90;;;;;;5094411;28;20174;-68
2024/01/13 10:33:51;;;;;;;7.07;4.97;;;5.20;99.90;;;;;;5093830;28;20193;-69
2024/01/13 10:36:22;;;;;;;11.20;5.83;;;5.20;99.90;;;;;;5094270;28;20517;-68
2024/01/13 10:38:48;;;;;;;6.20;4.33;;;5.30;99.90;;;;;;5094379;28;20490;-68
2024/01/13 10:41:14;;;;;;;8.60;6.10;;;5.20;99.90;;;;;;5094351;28;20504;-69
2024/01/13 10:43:46;;;;;;;7.50;5.07;;;5.10;99.90;;;;;;5093788;28;20432;-69
2024/01/13 10:46:18;;;;;;;8.73;6.23;;;5.20;99.90;;;;;;5094281;28;20555;-68
2024/01/13 10:48:47;;;;;;;13.90;6.67;;;5.00;99.90;;;;;;5094141;28;20439;-68
2024/01/13 10:51:23;;;;;;;8.77;6.30;;;5.00;99.90;;;;;;5093935;28;20905;-69
2024/01/13 10:53:51;;;;;;;7.17;5.50;;;5.00;99.90;;;;;;5093705;28;20473;-69
2024/01/13 10:56:16;;;;;;;7.13;5.50;;;4.80;99.90;;;;;;5093717;28;20772;-70
2024/01/13 10:58:46;;;;;;;13.63;5.60;;;4.60;99.90;;;;;;5093913;28;20408;-70
2024/01/13 11:01:12;;;;;;;7.53;5.30;;;4.50;99.90;;;;;;5093732;28;20166;-70
2024/01/13 11:03:40;;;;;;;12.60;6.27;;;4.40;99.90;;;;;;5093769;28;20514;-69
2024/01/13 11:06:05;;;;;;;7.80;5.70;;;4.30;99.90;;;;;;5093712;28;20228;-69
2024/01/13 11:08:31;;;;;;;12.93;6.07;;;4.30;99.90;;;;;;5093784;28;20883;-69
2024/01/13 11:11:00;;;;;;;7.30;5.70;;;4.20;99.90;;;;;;5093677;28;20178;-68
2024/01/13 11:13:34;;;;;;;6.70;4.97;;;4.20;99.90;;;;;;5093427;28;20231;-68
2024/01/13 11:16:00;;;;;;;10.00;6.70;;;4.10;99.90;;;;;;5093357;28;20387;-69
2024/01/13 11:18:26;;;;;;;11.17;6.03;;;4.00;99.90;;;;;;5093581;28;20845;-68
2024/01/13 11:21:10;;;;;;;8.40;6.03;;;3.90;99.90;;;;;;5093597;28;20228;-70
2024/01/13 11:23:39;;;;;;;11.00;5.30;;;3.80;99.90;;;;;;5093303;28;20419;-68
2024/01/13 11:26:05;;;;;;;9.10;5.90;;;3.80;99.90;;;;;;5093291;28;20718;-68
2024/01/13 11:28:54;;;;;;;9.10;5.97;;;4.00;99.90;;;;;;5093243;28;20524;-68
2024/01/13 11:31:39;;;;;;;15.40;8.27;;;3.90;99.90;;;;;;5093353;28;20479;-69
2024/01/13 11:34:07;;;;;;;15.40;6.73;;;3.90;99.90;;;;;;5092733;28;20491;-69
2024/01/13 11:36:34;;;;;;;13.47;7.77;;;3.90;99.90;;;;;;5093126;28;20457;-69
2024/01/13 11:39:01;;;;;;;9.13;6.47;;;3.80;99.90;;;;;;5093074;28;20415;-69
2024/01/13 11:41:46;;;;;;;9.57;6.00;;;3.80;99.90;;;;;;5093102;28;20444;-68
2024/01/13 11:44:22;;;;;;;9.03;6.47;;;3.80;99.90;;;;;;5092687;28;20952;-69
2024/01/13 11:47:07;;;;;;;11.60;6.30;;;3.80;99.90;;;;;;5092664;28;20395;-69
2024/01/13 11:49:46;;;;;;;7.47;5.30;;;3.80;99.90;;;;;;5092748;28;20449;-69
2024/01/13 11:52:15;;;;;;;11.03;6.00;;;3.70;99.90;;;;;;5092697;28;20917;-69
2024/01/13 11:54:43;;;;;;;13.87;8.43;;;3.70;99.90;;;;;;5091919;28;20971;-69
2024/01/13 11:57:11;;;;;;;11.90;7.00;;;3.70;99.90;;;;;;5092579;28;20410;-70
2024/01/13 11:59:37;;;;;;;10.60;6.67;;;3.80;99.90;;;;;;5092723;28;20437;-68
2024/01/13 12:02:03;;;;;;;14.93;7.97;;;3.70;99.90;;;;;;5092560;28;20404;-68
2024/01/13 12:04:29;;;;;;;11.73;7.93;;;3.70;99.90;;;;;;5092237;28;20427;-69
2024/01/13 12:06:55;;;;;;;8.57;7.17;;;3.70;99.90;;;;;;5092353;28;20451;-69
2024/01/13 12:09:28;;;;;;;9.80;6.70;;;3.80;99.90;;;;;;5092468;28;20400;-69
2024/01/13 12:11:56;;;;;;;12.80;8.13;;;3.80;99.90;;;;;;5092500;28;20874;-69
2024/01/13 12:14:33;;;;;;;15.10;7.13;;;3.80;99.90;;;;;;5074079;28;20771;-70
2024/01/13 12:17:03;;;;;;;8.40;6.63;;;3.90;99.90;;;;;;5092323;28;20407;-68
2024/01/13 12:19:33;;;;;;;16.40;7.37;;;3.80;99.90;;;;;;5092394;28;20404;-69
2024/01/13 12:21:59;;;;;;;12.43;7.00;;;3.80;99.90;;;;;;5092232;28;20407;-68
2024/01/13 12:24:30;;;;;;;12.20;7.43;;;3.80;99.90;;;;;;5092060;28;20454;-69
2024/01/13 12:26:56;;;;;;;12.60;8.37;;;3.70;99.90;;;;;;5092185;28;20208;-69
2024/01/13 12:29:25;;;;;;;11.17;7.73;;;3.70;99.90;;;;;;5092176;28;20410;-70
2024/01/13 12:31:53;;;;;;;15.70;8.60;;;3.70;99.90;;;;;;5092185;28;20542;-69
2024/01/13 12:34:20;;;;;;;16.43;8.60;;;3.60;99.90;;;;;;5092011;28;20451;-69
2024/01/13 12:36:45;;;;;;;12.73;7.53;;;3.60;99.90;;;;;;5092071;28;20410;-69